Time;durP1;ratioP1;P1;durP2;ratioP2;P2;SDS_P1;SDS_P2;PMS_P1;PMS_P2;Temp;Humidity;BMP_temperature;BMP_pressure;BME280_temperature;BME280_humidity;BME280_pressure;Samples;Min_cycle;Max_cycle;Signal;HPM_P1;HPM_P2
2021/07/26 00:00:14;;;;;;;;;;;25.30;55.70;;;;;;1564693;75;1933;-73
2021/07/26 00:02:17;;;;;;;;;;;25.30;55.60;;;;;;1564518;75;777;-76
2021/07/26 00:04:19;;;;;;;;;;;25.40;55.70;;;;;;1565077;75;767;-71
2021/07/26 00:06:20;;;;;;;;;;;25.30;55.80;;;;;;1567154;75;1085;-73
2021/07/26 00:08:22;;;;;;;;;;;25.40;55.90;;;;;;1572984;75;770;-76
2021/07/26 00:10:24;;;;;;;;;;;25.30;56.00;;;;;;1569624;75;665;-73
2021/07/26 00:12:26;;;;;;;;;;;25.30;55.80;;;;;;1567689;75;716;-77
2021/07/26 00:14:28;;;;;;;;;;;25.30;55.70;;;;;;1568618;75;1184;-73
2021/07/26 00:16:30;;;;;;;;;;;25.40;55.50;;;;;;1574891;75;799;-73
2021/07/26 00:18:32;;;;;;;;;;;25.40;55.30;;;;;;1578912;75;810;-71
2021/07/26 00:20:33;;;;;;;;;;;25.40;55.20;;;;;;1569487;75;1932;-73
2021/07/26 00:22:35;;;;;;;;;;;25.40;55.10;;;;;;1575097;75;729;-75
2021/07/26 00:24:37;;;;;;;;;;;25.40;55.30;;;;;;1559889;75;1205;-73
2021/07/26 00:26:39;;;;;;;;;;;25.40;55.60;;;;;;1564753;75;803;-75
2021/07/26 00:28:41;;;;;;;;;;;25.40;55.80;;;;;;1565691;75;791;-76
2021/07/26 00:30:43;;;;;;;;;;;25.40;55.70;;;;;;1565109;75;794;-68
2021/07/26 00:32:45;;;;;;;;;;;25.40;55.70;;;;;;1568536;75;797;-71
2021/07/26 00:34:47;;;;;;;;;;;25.40;55.70;;;;;;1573165;75;1133;-71
2021/07/26 00:36:49;;;;;;;;;;;25.30;55.50;;;;;;1565346;75;745;-71
2021/07/26 00:38:51;;;;;;;;;;;25.30;55.50;;;;;;1563957;75;780;-72
2021/07/26 00:40:53;;;;;;;;;;;25.40;55.50;;;;;;1562976;75;1923;-73
2021/07/26 00:42:54;;;;;;;;;;;25.40;55.40;;;;;;1560695;75;701;-73
2021/07/26 00:44:56;;;;;;;;;;;25.40;55.30;;;;;;1565705;75;1152;-74
2021/07/26 00:46:58;;;;;;;;;;;25.40;55.20;;;;;;1570023;75;809;-76
2021/07/26 00:49:04;;;;;;;;;;;25.40;55.20;;;;;;1564777;75;806;-72
2021/07/26 00:51:05;;;;;;;;;;;25.30;55.20;;;;;;1567484;75;2010;-73
2021/07/26 00:53:07;;;;;;;;;;;25.40;55.20;;;;;;1570018;75;795;-73
2021/07/26 00:55:09;;;;;;;;;;;25.30;54.80;;;;;;1561094;75;1200;-71
2021/07/26 00:57:11;;;;;;;;;;;25.30;54.90;;;;;;1561712;75;677;-72
2021/07/26 00:59:13;;;;;;;;;;;25.40;55.10;;;;;;1569537;75;870;-74
2021/07/26 01:01:17;;;;;;;;;;;25.40;54.90;;;;;;1578056;75;1932;-76
2021/07/26 01:03:19;;;;;;;;;;;25.30;54.80;;;;;;1559596;75;1497;-74
2021/07/26 01:05:20;;;;;;;;;;;25.30;54.70;;;;;;1569884;75;1124;-71
2021/07/26 01:07:22;;;;;;;;;;;25.30;54.60;;;;;;1572372;75;787;-78
2021/07/26 01:09:24;;;;;;;;;;;25.30;54.40;;;;;;1570407;75;813;-75
2021/07/26 01:11:26;;;;;;;;;;;25.40;54.90;;;;;;1571005;75;644;-74
2021/07/26 01:13:29;;;;;;;;;;;25.40;55.10;;;;;;1564747;75;802;-76
2021/07/26 01:15:31;;;;;;;;;;;25.40;55.10;;;;;;1565946;75;1128;-72
2021/07/26 01:17:35;;;;;;;;;;;25.30;55.20;;;;;;1567313;75;752;-74
2021/07/26 01:19:37;;;;;;;;;;;25.40;55.20;;;;;;1562930;75;1564;-72
2021/07/26 01:21:39;;;;;;;;;;;25.40;55.20;;;;;;1574528;75;1949;-74
2021/07/26 01:23:41;;;;;;;;;;;25.30;55.40;;;;;;1565230;75;767;-74
2021/07/26 01:25:43;;;;;;;;;;;25.40;55.20;;;;;;1571845;75;1134;-74
2021/07/26 01:27:45;;;;;;;;;;;25.40;55.20;;;;;;1562989;75;759;-74
2021/07/26 01:29:47;;;;;;;;;;;25.40;55.10;;;;;;1559747;75;778;-76
2021/07/26 01:31:49;;;;;;;;;;;25.30;54.90;;;;;;1565615;75;795;-76
2021/07/26 01:33:51;;;;;;;;;;;25.30;55.00;;;;;;1560911;75;755;-74
2021/07/26 01:35:53;;;;;;;;;;;25.40;55.10;;;;;;1591753;72;2135;-70
2021/07/26 01:37:54;;;;;;;;;;;25.30;55.30;;;;;;1611168;73;744;-65
2021/07/26 01:39:56;;;;;;;;;;;25.40;55.00;;;;;;1610871;72;698;-69
2021/07/26 01:41:58;;;;;;;;;;;25.40;55.10;;;;;;1614730;72;1928;-72
2021/07/26 01:44:03;;;;;;;;;;;25.40;54.90;;;;;;1602967;73;809;-70
2021/07/26 01:46:07;;;;;;;;;;;25.40;54.90;;;;;;1594787;73;1226;-66
2021/07/26 01:48:29;;;;;;;;;;;25.30;55.00;;;;;;1582040;73;708;-68
2021/07/26 01:50:32;;;;;;;;;;;25.40;54.90;;;;;;1598622;73;1148;-69
2021/07/26 01:52:34;;;;;;;;;;;25.30;55.00;;;;;;1570666;73;1935;-66
2021/07/26 01:54:36;;;;;;;;;;;25.40;54.90;;;;;;1579593;73;710;-69
2021/07/26 01:56:38;;;;;;;;;;;25.30;55.20;;;;;;1590583;73;1151;-69
2021/07/26 01:58:40;;;;;;;;;;;25.40;55.10;;;;;;1574264;73;697;-70
2021/07/26 02:00:42;;;;;;;;;;;25.40;54.90;;;;;;1597154;72;688;-69
2021/07/26 02:02:43;;;;;;;;;;;25.40;54.90;;;;;;1590303;73;674;-70
2021/07/26 02:04:45;;;;;;;;;;;25.30;54.90;;;;;;1577511;73;1103;-70
2021/07/26 02:06:48;;;;;;;;;;;25.40;55.00;;;;;;1568262;73;785;-71
2021/07/26 02:08:50;;;;;;;;;;;25.40;54.70;;;;;;1584531;73;965;-68
2021/07/26 02:10:52;;;;;;;;;;;25.30;54.80;;;;;;1590471;73;663;-68
2021/07/26 02:12:56;;;;;;;;;;;25.30;54.70;;;;;;1605580;73;750;-69
2021/07/26 02:15:00;;;;;;;;;;;25.30;54.80;;;;;;1608716;73;1135;-71
2021/07/26 02:17:01;;;;;;;;;;;25.30;54.60;;;;;;1594291;73;1607;-70
2021/07/26 02:19:04;;;;;;;;;;;25.30;54.50;;;;;;1583949;73;722;-72
2021/07/26 02:21:05;;;;;;;;;;;25.30;54.40;;;;;;1586392;73;1928;-69
2021/07/26 02:23:07;;;;;;;;;;;25.30;54.60;;;;;;1592486;73;933;-67
2021/07/26 02:25:10;;;;;;;;;;;25.30;54.60;;;;;;1597810;72;1134;-66
2021/07/26 02:27:11;;;;;;;;;;;25.30;54.90;;;;;;1582225;73;708;-69
2021/07/26 02:29:13;;;;;;;;;;;25.30;54.60;;;;;;1582060;73;711;-69
2021/07/26 02:31:15;;;;;;;;;;;25.40;54.70;;;;;;1596713;73;752;-67
2021/07/26 02:33:17;;;;;;;;;;;25.30;54.60;;;;;;1610437;73;790;-69
2021/07/26 02:35:19;;;;;;;;;;;25.30;54.70;;;;;;1586132;73;1122;-71
2021/07/26 02:37:21;;;;;;;;;;;25.30;54.60;;;;;;1590881;73;739;-68
2021/07/26 02:39:23;;;;;;;;;;;25.30;54.70;;;;;;1604008;73;737;-69
2021/07/26 02:41:25;;;;;;;;;;;25.30;54.70;;;;;;1577465;73;1932;-67
2021/07/26 02:43:26;;;;;;;;;;;25.40;54.60;;;;;;1575440;73;704;-70
2021/07/26 02:45:28;;;;;;;;;;;25.30;54.70;;;;;;1568237;73;1165;-70
2021/07/26 02:47:30;;;;;;;;;;;25.40;54.60;;;;;;1577293;73;688;-72
2021/07/26 02:49:32;;;;;;;;;;;25.40;54.70;;;;;;1570982;73;646;-72
2021/07/26 02:51:34;;;;;;;;;;;25.30;54.70;;;;;;1604132;73;721;-70
2021/07/26 02:53:36;;;;;;;;;;;25.30;54.60;;;;;;1577267;73;800;-69
2021/07/26 02:55:39;;;;;;;;;;;25.40;54.90;;;;;;1595560;73;1171;-69
2021/07/26 02:57:41;;;;;;;;;;;25.30;54.90;;;;;;1615102;73;722;-68
2021/07/26 02:59:43;;;;;;;;;;;25.30;54.60;;;;;;1584372;73;712;-73
2021/07/26 03:01:45;;;;;;;;;;;25.40;54.40;;;;;;1577128;73;1927;-68
2021/07/26 03:03:47;;;;;;;;;;;25.30;54.50;;;;;;1599367;73;745;-70
2021/07/26 03:05:49;;;;;;;;;;;25.30;54.40;;;;;;1603768;73;1161;-72
2021/07/26 03:07:51;;;;;;;;;;;25.30;54.40;;;;;;1607696;73;723;-68
2021/07/26 03:09:53;;;;;;;;;;;25.40;54.20;;;;;;1588154;73;756;-70
2021/07/26 03:11:55;;;;;;;;;;;25.30;54.20;;;;;;1589667;73;755;-69
2021/07/26 03:13:56;;;;;;;;;;;25.30;54.00;;;;;;1605369;73;707;-69
2021/07/26 03:16:00;;;;;;;;;;;25.30;53.90;;;;;;1602285;73;1132;-68
2021/07/26 03:18:02;;;;;;;;;;;25.40;54.00;;;;;;1591437;73;1006;-72
2021/07/26 03:20:04;;;;;;;;;;;25.40;53.60;;;;;;1589342;73;729;-69
2021/07/26 03:22:25;;;;;;;;;;;25.30;53.70;;;;;;1593571;73;1919;-70
2021/07/26 03:24:27;;;;;;;;;;;25.40;53.90;;;;;;1581399;73;617;-69
2021/07/26 03:26:29;;;;;;;;;;;25.40;54.00;;;;;;1589946;73;1158;-67
2021/07/26 03:28:31;;;;;;;;;;;25.30;54.10;;;;;;1589064;73;740;-70
2021/07/26 03:30:33;;;;;;;;;;;25.30;54.00;;;;;;1595351;73;725;-74
2021/07/26 03:32:35;;;;;;;;;;;25.30;54.00;;;;;;1607531;73;750;-71
2021/07/26 03:34:37;;;;;;;;;;;25.30;53.90;;;;;;1582000;73;732;-72
2021/07/26 03:36:39;;;;;;;;;;;25.30;53.90;;;;;;1584248;73;1072;-71
2021/07/26 03:38:40;;;;;;;;;;;25.30;54.20;;;;;;1587824;73;694;-68
2021/07/26 03:40:42;;;;;;;;;;;25.30;54.20;;;;;;1583336;73;803;-70
2021/07/26 03:42:44;;;;;;;;;;;25.30;54.10;;;;;;1601877;73;1939;-68
2021/07/26 03:44:46;;;;;;;;;;;25.40;54.20;;;;;;1598404;73;1109;-68
2021/07/26 03:46:48;;;;;;;;;;;25.40;54.20;;;;;;1587010;73;627;-69
2021/07/26 03:48:50;;;;;;;;;;;25.30;54.10;;;;;;1589491;73;700;-70
2021/07/26 03:50:52;;;;;;;;;;;25.30;54.10;;;;;;1596658;73;729;-70
2021/07/26 03:52:54;;;;;;;;;;;25.40;54.30;;;;;;1577500;73;758;-69
2021/07/26 03:54:56;;;;;;;;;;;25.30;54.20;;;;;;1594344;73;1181;-68
2021/07/26 03:56:58;;;;;;;;;;;25.30;54.10;;;;;;1566931;73;702;-69
2021/07/26 03:59:00;;;;;;;;;;;25.30;54.20;;;;;;1575131;73;1056;-69
2021/07/26 04:01:02;;;;;;;;;;;25.30;54.10;;;;;;1570111;73;618;-68
2021/07/26 04:03:24;;;;;;;;;;;25.30;54.10;;;;;;1571269;73;1948;-69
2021/07/26 04:05:36;;;;;;;;;;;25.30;54.30;;;;;;1584856;73;1522;-68
2021/07/26 04:07:26;;;;;;;;;;;25.30;54.20;;;;;;1578921;73;1601;-66
2021/07/26 04:09:34;;;;;;;;;;;25.30;54.20;;;;;;1586361;73;777;-69
2021/07/26 04:11:36;;;;;;;;;;;25.40;54.00;;;;;;1594869;73;1546;-70
2021/07/26 04:13:37;;;;;;;;;;;25.30;53.90;;;;;;1587008;73;1504;-70
2021/07/26 04:15:40;;;;;;;;;;;25.30;53.90;;;;;;1585473;73;1445;-69
2021/07/26 04:17:41;;;;;;;;;;;25.30;54.10;;;;;;1589451;73;709;-71
2021/07/26 04:19:43;;;;;;;;;;;25.40;54.00;;;;;;1576077;73;740;-69
2021/07/26 04:21:45;;;;;;;;;;;25.30;54.20;;;;;;1594449;73;1935;-66
2021/07/26 04:23:47;;;;;;;;;;;25.30;54.20;;;;;;1577988;73;714;-69
2021/07/26 04:25:50;;;;;;;;;;;25.30;54.20;;;;;;1573844;73;1131;-69
2021/07/26 04:27:52;;;;;;;;;;;25.40;54.30;;;;;;1576768;73;729;-70
2021/07/26 04:29:54;;;;;;;;;;;25.40;54.20;;;;;;1573981;73;698;-71
2021/07/26 04:31:56;;;;;;;;;;;25.30;54.30;;;;;;1577336;73;713;-68
2021/07/26 04:33:58;;;;;;;;;;;25.40;54.10;;;;;;1568277;73;734;-69
2021/07/26 04:36:01;;;;;;;;;;;25.30;54.40;;;;;;1564453;73;1126;-69
2021/07/26 04:38:03;;;;;;;;;;;25.30;54.50;;;;;;1564553;73;803;-70
2021/07/26 04:40:05;;;;;;;;;;;25.30;54.40;;;;;;1565953;73;692;-72
2021/07/26 04:42:07;;;;;;;;;;;25.30;54.50;;;;;;1574061;73;1919;-69
2021/07/26 04:44:09;;;;;;;;;;;25.30;54.60;;;;;;1566571;73;697;-70
2021/07/26 04:46:11;;;;;;;;;;;25.40;54.70;;;;;;1570880;73;1480;-69
2021/07/26 04:48:13;;;;;;;;;;;25.30;54.50;;;;;;1568995;73;776;-69
2021/07/26 04:50:16;;;;;;;;;;;25.30;54.50;;;;;;1572778;73;745;-69
2021/07/26 04:52:18;;;;;;;;;;;25.40;54.50;;;;;;1564879;73;821;-69
2021/07/26 04:54:20;;;;;;;;;;;25.40;54.50;;;;;;1567909;73;671;-73
2021/07/26 04:56:22;;;;;;;;;;;25.30;54.60;;;;;;1576263;73;1141;-70
2021/07/26 04:58:24;;;;;;;;;;;25.30;54.70;;;;;;1567455;73;805;-70
2021/07/26 05:00:27;;;;;;;;;;;25.40;54.00;;;;;;1576641;73;733;-70
2021/07/26 05:02:29;;;;;;;;;;;25.40;53.70;;;;;;1567452;73;1917;-72
2021/07/26 05:04:31;;;;;;;;;;;25.40;53.30;;;;;;1588340;73;692;-70
2021/07/26 05:06:32;;;;;;;;;;;25.40;53.00;;;;;;1568447;73;1131;-68
2021/07/26 05:08:34;;;;;;;;;;;25.40;53.00;;;;;;1574482;73;810;-67
2021/07/26 05:10:36;;;;;;;;;;;25.40;52.50;;;;;;1580892;73;707;-65
2021/07/26 05:12:38;;;;;;;;;;;25.30;52.20;;;;;;1589908;73;703;-67
2021/07/26 05:14:40;;;;;;;;;;;25.30;52.10;;;;;;1579399;73;694;-66
2021/07/26 05:16:42;;;;;;;;;;;25.30;52.00;;;;;;1577387;73;1188;-67
2021/07/26 05:18:44;;;;;;;;;;;25.30;52.00;;;;;;1576007;73;727;-66
2021/07/26 05:20:46;;;;;;;;;;;25.30;52.00;;;;;;1573083;73;769;-66
2021/07/26 05:22:48;;;;;;;;;;;25.40;52.00;;;;;;1570601;73;2123;-67
2021/07/26 05:24:52;;;;;;;;;;;25.30;52.00;;;;;;1568691;73;1093;-68
2021/07/26 05:26:58;;;;;;;;;;;25.30;52.00;;;;;;1575119;73;894;-66
2021/07/26 05:29:00;;;;;;;;;;;25.30;52.30;;;;;;1582324;73;793;-68
2021/07/26 05:31:02;;;;;;;;;;;25.30;52.80;;;;;;1582482;73;703;-68
2021/07/26 05:33:04;;;;;;;;;;;25.40;52.80;;;;;;1579698;73;746;-70
2021/07/26 05:35:06;;;;;;;;;;;25.40;52.70;;;;;;1582756;73;1151;-68
2021/07/26 05:37:08;;;;;;;;;;;25.40;52.20;;;;;;1579079;73;752;-68
2021/07/26 05:39:10;;;;;;;;;;;25.40;52.20;;;;;;1576276;73;688;-69
2021/07/26 05:41:12;;;;;;;;;;;25.30;52.10;;;;;;1567225;73;779;-69
2021/07/26 05:43:14;;;;;;;;;;;25.20;52.10;;;;;;1569600;73;1928;-70
2021/07/26 05:45:16;;;;;;;;;;;25.30;52.10;;;;;;1566999;73;1177;-66
2021/07/26 05:47:18;;;;;;;;;;;25.20;52.30;;;;;;1577570;73;635;-70
2021/07/26 05:49:20;;;;;;;;;;;25.20;52.30;;;;;;1577287;73;607;-70
2021/07/26 05:51:22;;;;;;;;;;;25.20;52.30;;;;;;1588136;73;723;-70
2021/07/26 05:53:23;;;;;;;;;;;25.20;52.40;;;;;;1573846;73;776;-70
2021/07/26 05:55:25;;;;;;;;;;;25.20;52.40;;;;;;1566761;73;1168;-68
2021/07/26 05:57:31;;;;;;;;;;;25.20;52.50;;;;;;1562093;73;666;-68
2021/07/26 05:59:31;;;;;;;;;;;25.20;52.50;;;;;;1567512;73;1116;-67
2021/07/26 06:01:46;;;;;;;;;;;25.10;52.40;;;;;;1563960;73;766;-66
2021/07/26 06:03:39;;;;;;;;;;;25.10;52.50;;;;;;1571354;73;1928;-66
2021/07/26 06:05:41;;;;;;;;;;;25.10;52.50;;;;;;1589131;73;1205;-67
2021/07/26 06:07:43;;;;;;;;;;;25.10;52.50;;;;;;1581352;73;666;-68
2021/07/26 06:09:46;;;;;;;;;;;25.10;52.50;;;;;;1572292;73;659;-67
2021/07/26 06:11:49;;;;;;;;;;;25.10;52.60;;;;;;1582612;73;711;-64
2021/07/26 06:13:51;;;;;;;;;;;25.10;52.60;;;;;;1570193;73;726;-67
2021/07/26 06:15:53;;;;;;;;;;;25.10;52.60;;;;;;1584531;73;1105;-67
2021/07/26 06:17:55;;;;;;;;;;;25.10;52.60;;;;;;1593539;73;733;-69
2021/07/26 06:19:57;;;;;;;;;;;25.10;52.60;;;;;;1581976;73;896;-67
2021/07/26 06:21:59;;;;;;;;;;;25.10;52.60;;;;;;1601022;73;709;-67
2021/07/26 06:24:01;;;;;;;;;;;25.00;52.60;;;;;;1592844;73;1933;-68
2021/07/26 06:26:07;;;;;;;;;;;25.10;52.60;;;;;;1599085;73;1131;-68
2021/07/26 06:28:06;;;;;;;;;;;25.10;52.70;;;;;;1584804;73;1550;-68
2021/07/26 06:30:08;;;;;;;;;;;25.00;52.60;;;;;;1606382;73;656;-67
2021/07/26 06:32:10;;;;;;;;;;;25.00;52.70;;;;;;1610138;73;727;-64
2021/07/26 06:34:12;;;;;;;;;;;25.00;52.70;;;;;;1594254;73;827;-68
2021/07/26 06:36:14;;;;;;;;;;;25.10;52.60;;;;;;1582236;73;1082;-66
2021/07/26 06:38:16;;;;;;;;;;;25.00;52.70;;;;;;1562055;73;789;-68
2021/07/26 06:40:18;;;;;;;;;;;25.10;52.70;;;;;;1578093;73;673;-65
2021/07/26 06:42:20;;;;;;;;;;;25.00;52.80;;;;;;1578908;73;790;-67
2021/07/26 06:44:22;;;;;;;;;;;25.10;52.80;;;;;;1570143;73;1927;-67
2021/07/26 06:46:24;;;;;;;;;;;25.10;52.80;;;;;;1582946;73;1138;-66
2021/07/26 06:48:27;;;;;;;;;;;25.10;52.80;;;;;;1593250;73;708;-68
2021/07/26 06:50:29;;;;;;;;;;;25.00;52.80;;;;;;1599011;73;704;-66
2021/07/26 06:52:31;;;;;;;;;;;25.10;52.80;;;;;;1586350;73;682;-69
2021/07/26 06:54:33;;;;;;;;;;;25.00;52.80;;;;;;1584862;73;756;-67
2021/07/26 06:56:35;;;;;;;;;;;25.10;52.80;;;;;;1596012;73;1124;-66
2021/07/26 06:58:37;;;;;;;;;;;25.00;52.80;;;;;;1574927;73;730;-66
2021/07/26 07:00:39;;;;;;;;;;;25.00;52.90;;;;;;1593997;73;788;-66
2021/07/26 07:02:41;;;;;;;;;;;25.00;52.90;;;;;;1594218;73;1954;-67
2021/07/26 07:04:43;;;;;;;;;;;25.00;52.90;;;;;;1591555;73;781;-66
2021/07/26 07:06:44;;;;;;;;;;;25.00;52.90;;;;;;1568982;73;790;-66
2021/07/26 07:08:46;;;;;;;;;;;25.00;52.90;;;;;;1585557;73;684;-67
2021/07/26 07:10:48;;;;;;;;;;;25.00;53.00;;;;;;1595251;73;588;-66
2021/07/26 07:12:51;;;;;;;;;;;25.00;53.00;;;;;;1583004;73;742;-68
2021/07/26 07:14:53;;;;;;;;;;;25.00;53.00;;;;;;1579614;73;1168;-67
2021/07/26 07:16:55;;;;;;;;;;;25.00;53.10;;;;;;1573953;73;718;-64
2021/07/26 07:18:57;;;;;;;;;;;25.00;53.10;;;;;;1574723;73;704;-67
2021/07/26 07:20:59;;;;;;;;;;;25.00;53.10;;;;;;1571901;73;812;-65
2021/07/26 07:23:00;;;;;;;;;;;25.00;53.20;;;;;;1575011;73;1942;-65
2021/07/26 07:25:02;;;;;;;;;;;25.00;53.20;;;;;;1577436;73;1080;-67
2021/07/26 07:27:04;;;;;;;;;;;25.00;53.30;;;;;;1582165;73;716;-66
2021/07/26 07:29:06;;;;;;;;;;;25.00;53.30;;;;;;1571047;73;749;-67
2021/07/26 07:31:08;;;;;;;;;;;25.00;53.30;;;;;;1577696;73;788;-67
2021/07/26 07:33:10;;;;;;;;;;;25.00;53.30;;;;;;1569967;73;646;-67
2021/07/26 07:35:12;;;;;;;;;;;25.00;53.40;;;;;;1584730;72;2082;-64
2021/07/26 07:37:14;;;;;;;;;;;25.00;53.40;;;;;;1607172;72;716;-68
2021/07/26 07:39:16;;;;;;;;;;;25.00;53.40;;;;;;1619325;72;725;-68
2021/07/26 07:41:18;;;;;;;;;;;25.00;53.30;;;;;;1609242;73;775;-67
2021/07/26 07:43:19;;;;;;;;;;;25.00;53.40;;;;;;1619383;72;1929;-66
2021/07/26 07:45:21;;;;;;;;;;;25.00;53.40;;;;;;1607088;72;1196;-66
2021/07/26 07:47:23;;;;;;;;;;;24.90;53.40;;;;;;1616468;72;729;-66
2021/07/26 07:49:25;;;;;;;;;;;25.00;53.40;;;;;;1613644;72;825;-66
2021/07/26 07:51:27;;;;;;;;;;;25.00;53.40;;;;;;1613268;72;761;-66
2021/07/26 07:53:29;;;;;;;;;;;25.00;53.40;;;;;;1616388;73;776;-66
2021/07/26 07:55:31;;;;;;;;;;;25.00;53.40;;;;;;1618457;71;1120;-69
2021/07/26 07:57:36;;;;;;;;;;;25.00;53.40;;;;;;1620712;72;737;-66
2021/07/26 07:59:36;;;;;;;;;;;25.00;53.40;;;;;;1612472;72;1489;-67
2021/07/26 08:01:38;;;;;;;;;;;25.00;53.30;;;;;;1617359;72;676;-67
2021/07/26 08:03:40;;;;;;;;;;;24.90;53.40;;;;;;1617152;72;1897;-66
2021/07/26 08:05:42;;;;;;;;;;;25.00;53.40;;;;;;1613357;72;1190;-67
2021/07/26 08:07:44;;;;;;;;;;;24.90;53.40;;;;;;1614808;72;719;-67
2021/07/26 08:09:46;;;;;;;;;;;25.00;53.40;;;;;;1615636;72;787;-69
2021/07/26 08:11:48;;;;;;;;;;;25.00;53.30;;;;;;1609727;72;750;-64
2021/07/26 08:13:49;;;;;;;;;;;25.00;53.30;;;;;;1621516;72;737;-67
2021/07/26 08:15:52;;;;;;;;;;;25.00;53.30;;;;;;1618679;72;1157;-65
2021/07/26 08:17:54;;;;;;;;;;;25.00;53.20;;;;;;1621282;72;776;-68
2021/07/26 08:19:56;;;;;;;;;;;25.00;53.20;;;;;;1619814;72;748;-67
2021/07/26 08:21:58;;;;;;;;;;;25.00;53.10;;;;;;1617866;73;901;-66
2021/07/26 08:24:00;;;;;;;;;;;25.00;53.10;;;;;;1621197;72;1933;-66
2021/07/26 08:26:02;;;;;;;;;;;25.00;53.10;;;;;;1620314;72;1231;-67
2021/07/26 08:28:03;;;;;;;;;;;25.00;53.10;;;;;;1610851;72;786;-66
2021/07/26 08:30:06;;;;;;;;;;;25.00;53.10;;;;;;1618507;72;784;-66
2021/07/26 08:32:08;;;;;;;;;;;25.00;53.10;;;;;;1618928;72;695;-67
2021/07/26 08:34:10;;;;;;;;;;;24.90;53.00;;;;;;1618311;72;930;-66
2021/07/26 08:36:11;;;;;;;;;;;25.00;53.00;;;;;;1617543;72;1137;-67
2021/07/26 08:38:13;;;;;;;;;;;25.00;53.00;;;;;;1615924;72;685;-69
2021/07/26 08:40:15;;;;;;;;;;;24.90;52.90;;;;;;1610822;72;744;-67
2021/07/26 08:42:17;;;;;;;;;;;24.90;53.00;;;;;;1608587;73;736;-67
2021/07/26 08:44:19;;;;;;;;;;;25.00;53.00;;;;;;1613180;72;1941;-67
2021/07/26 08:46:21;;;;;;;;;;;24.90;52.90;;;;;;1621674;72;1124;-65
2021/07/26 08:48:24;;;;;;;;;;;24.90;52.90;;;;;;1630744;72;768;-66
2021/07/26 08:50:26;;;;;;;;;;;25.00;53.00;;;;;;1623795;73;767;-66
2021/07/26 08:52:28;;;;;;;;;;;24.90;53.00;;;;;;1619993;72;734;-66
2021/07/26 08:54:30;;;;;;;;;;;24.90;53.00;;;;;;1616770;72;752;-66
2021/07/26 08:56:32;;;;;;;;;;;25.00;53.10;;;;;;1610804;72;1111;-66
2021/07/26 08:58:35;;;;;;;;;;;24.90;53.00;;;;;;1615386;72;760;-64
2021/07/26 09:00:38;;;;;;;;;;;24.90;53.00;;;;;;1621889;72;712;-64
2021/07/26 09:02:40;;;;;;;;;;;25.00;53.10;;;;;;1616243;72;785;-63
2021/07/26 09:04:42;;;;;;;;;;;25.00;53.10;;;;;;1622317;73;1947;-67
2021/07/26 09:06:44;;;;;;;;;;;25.00;53.10;;;;;;1623701;72;1156;-66
2021/07/26 09:08:46;;;;;;;;;;;24.90;53.10;;;;;;1621086;72;717;-66
2021/07/26 09:10:48;;;;;;;;;;;24.90;53.10;;;;;;1613027;73;709;-66
2021/07/26 09:12:50;;;;;;;;;;;25.00;53.10;;;;;;1613658;72;711;-66
2021/07/26 09:14:52;;;;;;;;;;;25.00;53.10;;;;;;1620250;72;777;-66
2021/07/26 09:16:57;;;;;;;;;;;25.00;53.10;;;;;;1604786;72;1124;-67
2021/07/26 09:19:03;;;;;;;;;;;25.00;53.10;;;;;;1614489;72;749;-66
2021/07/26 09:21:05;;;;;;;;;;;25.00;53.10;;;;;;1620618;72;743;-66
2021/07/26 09:23:11;;;;;;;;;;;25.00;53.10;;;;;;1622859;72;687;-65
2021/07/26 09:25:19;;;;;;;;;;;25.00;53.10;;;;;;1613786;72;1889;-66
2021/07/26 09:27:20;;;;;;;;;;;24.90;53.10;;;;;;1615416;72;1667;-67
2021/07/26 09:29:23;;;;;;;;;;;25.00;53.10;;;;;;1618777;72;687;-65
2021/07/26 09:31:25;;;;;;;;;;;25.00;53.10;;;;;;1611813;72;1848;-66
2021/07/26 09:33:28;;;;;;;;;;;25.00;53.10;;;;;;1619329;72;770;-66
2021/07/26 09:35:29;;;;;;;;;;;25.00;53.10;;;;;;1619101;72;1137;-70
2021/07/26 09:37:31;;;;;;;;;;;25.00;53.10;;;;;;1612453;72;791;-68
2021/07/26 09:39:33;;;;;;;;;;;25.00;53.10;;;;;;1608688;72;670;-68
2021/07/26 09:41:42;;;;;;;;;;;25.00;53.10;;;;;;1614590;73;797;-66
2021/07/26 09:43:44;;;;;;;;;;;25.00;53.10;;;;;;1603749;72;1925;-65
2021/07/26 09:45:50;;;;;;;;;;;25.00;53.10;;;;;;1613569;72;1135;-64
2021/07/26 09:48:04;;;;;;;;;;;25.00;53.10;;;;;;1605571;72;749;-69
2021/07/26 09:50:07;;;;;;;;;;;25.00;53.10;;;;;;1607588;72;792;-70
2021/07/26 09:52:09;;;;;;;;;;;25.00;53.10;;;;;;1625645;72;712;-70
2021/07/26 09:54:11;;;;;;;;;;;25.00;53.10;;;;;;1620146;72;747;-66
2021/07/26 09:56:13;;;;;;;;;;;25.00;53.10;;;;;;1616631;72;1100;-66
2021/07/26 09:58:16;;;;;;;;;;;25.00;53.10;;;;;;1615214;72;781;-64
2021/07/26 10:00:18;;;;;;;;;;;25.00;53.10;;;;;;1616577;72;814;-64
2021/07/26 10:02:20;;;;;;;;;;;25.00;53.10;;;;;;1613404;72;765;-65
2021/07/26 10:04:22;;;;;;;;;;;25.00;53.10;;;;;;1607306;72;1940;-65
2021/07/26 10:06:26;;;;;;;;;;;25.00;53.10;;;;;;1609333;72;1169;-66
2021/07/26 10:08:28;;;;;;;;;;;25.00;53.00;;;;;;1609962;72;1767;-65
2021/07/26 10:10:32;;;;;;;;;;;25.00;53.00;;;;;;1609175;72;715;-65
2021/07/26 10:12:35;;;;;;;;;;;25.00;53.00;;;;;;1603531;72;1825;-65
2021/07/26 10:14:38;;;;;;;;;;;25.00;53.00;;;;;;1610253;72;799;-64
2021/07/26 10:16:40;;;;;;;;;;;25.00;52.90;;;;;;1619565;72;1137;-66
2021/07/26 10:18:44;;;;;;;;;;;25.10;52.90;;;;;;1596139;73;814;-68
2021/07/26 10:21:00;;;;;;;;;;;25.10;53.00;;;;;;1604096;72;740;-64
2021/07/26 10:23:06;;;;;;;;;;;25.00;52.80;;;;;;1613845;72;705;-66
2021/07/26 10:25:10;;;;;;;;;;;25.00;52.80;;;;;;1605605;73;1896;-69
2021/07/26 10:27:12;;;;;;;;;;;25.10;52.80;;;;;;1608663;72;696;-67
2021/07/26 10:29:14;;;;;;;;;;;25.00;52.80;;;;;;1612750;72;668;-67
2021/07/26 10:31:35;;;;;;;;;;;25.00;52.90;;;;;;1590278;72;667;-68
2021/07/26 10:33:35;;;;;;;;;;;25.10;52.90;;;;;;1615473;72;1553;-65
2021/07/26 10:35:40;;;;;;;;;;;25.00;52.80;;;;;;1612743;72;1817;-66
2021/07/26 10:37:45;;;;;;;;;;;25.00;52.80;;;;;;1605406;73;802;-65
2021/07/26 10:40:00;;;;;;;;;;;25.00;52.80;;;;;;1611087;72;706;-65
2021/07/26 10:42:02;;;;;;;;;;;25.10;52.80;;;;;;1616993;73;1950;-68
2021/07/26 10:44:04;;;;;;;;;;;25.00;52.80;;;;;;1617207;72;1921;-64
2021/07/26 10:46:06;;;;;;;;;;;25.00;52.80;;;;;;1613333;72;1168;-65
2021/07/26 10:48:22;;;;;;;;;;;25.00;52.70;;;;;;1605085;72;796;-68
2021/07/26 10:50:24;;;;;;;;;;;25.10;52.70;;;;;;1606055;72;777;-65
2021/07/26 10:52:28;;;;;;;;;;;25.00;52.60;;;;;;1587611;73;953;-66
2021/07/26 10:54:36;;;;;;;;;;;25.00;52.60;;;;;;1603877;72;820;-68
2021/07/26 10:56:56;;;;;;;;;;;25.00;52.60;;;;;;1610569;72;1130;-65
2021/07/26 10:58:58;;;;;;;;;;;25.00;52.60;;;;;;1606923;72;704;-66
2021/07/26 11:01:18;;;;;;;;;;;25.00;52.60;;;;;;1615341;72;806;-66
2021/07/26 11:03:38;;;;;;;;;;;25.00;52.60;;;;;;1615493;73;841;-67
2021/07/26 11:05:40;;;;;;;;;;;25.00;52.60;;;;;;1616726;72;1916;-65
2021/07/26 11:07:42;;;;;;;;;;;25.10;52.60;;;;;;1606234;72;801;-66
2021/07/26 11:09:44;;;;;;;;;;;25.00;52.60;;;;;;1595580;72;799;-65
2021/07/26 11:11:47;;;;;;;;;;;25.00;52.50;;;;;;1614558;72;675;-65
2021/07/26 11:13:50;;;;;;;;;;;25.00;52.50;;;;;;1611395;72;771;-66
2021/07/26 11:15:52;;;;;;;;;;;25.00;52.50;;;;;;1595856;73;1198;-67
2021/07/26 11:18:12;;;;;;;;;;;25.00;52.50;;;;;;1597495;72;814;-66
2021/07/26 11:20:14;;;;;;;;;;;25.00;52.50;;;;;;1613750;72;725;-65
2021/07/26 11:22:21;;;;;;;;;;;25.00;52.40;;;;;;1582095;73;979;-66
2021/07/26 11:24:43;;;;;;;;;;;25.10;52.40;;;;;;1605936;72;1902;-63
2021/07/26 11:26:46;;;;;;;;;;;25.10;52.50;;;;;;1608418;73;1135;-64
2021/07/26 11:28:49;;;;;;;;;;;25.10;52.50;;;;;;1606442;73;1947;-65
2021/07/26 11:30:51;;;;;;;;;;;25.10;52.50;;;;;;1619157;72;682;-62
2021/07/26 11:32:53;;;;;;;;;;;25.10;52.50;;;;;;1617282;72;778;-65
2021/07/26 11:34:55;;;;;;;;;;;25.10;52.50;;;;;;1615413;72;654;-66
2021/07/26 11:37:10;;;;;;;;;;;25.10;52.50;;;;;;1609231;72;1119;-67
2021/07/26 11:39:12;;;;;;;;;;;25.10;52.50;;;;;;1613125;72;847;-67
2021/07/26 11:41:19;;;;;;;;;;;25.10;52.60;;;;;;1622502;72;795;-60
2021/07/26 11:43:33;;;;;;;;;;;25.10;52.70;;;;;;1604682;72;769;-65
2021/07/26 11:45:35;;;;;;;;;;;25.10;52.70;;;;;;1610651;73;1936;-67
2021/07/26 11:47:40;;;;;;;;;;;25.10;53.10;;;;;;1618893;72;781;-65
2021/07/26 11:49:46;;;;;;;;;;;25.10;53.50;;;;;;1605430;72;915;-65
2021/07/26 11:51:48;;;;;;;;;;;25.10;53.40;;;;;;1603024;72;766;-64
2021/07/26 11:53:52;;;;;;;;;;;25.10;53.20;;;;;;1604550;72;813;-68
2021/07/26 11:55:53;;;;;;;;;;;25.10;53.10;;;;;;1599256;72;1826;-70
2021/07/26 11:58:02;;;;;;;;;;;25.20;53.20;;;;;;1611492;72;755;-66
2021/07/26 12:00:06;;;;;;;;;;;25.10;53.30;;;;;;1614254;72;747;-66
2021/07/26 12:02:08;;;;;;;;;;;25.20;53.30;;;;;;1614624;72;761;-65
2021/07/26 12:04:12;;;;;;;;;;;25.10;53.20;;;;;;1612435;73;835;-65
2021/07/26 12:06:13;;;;;;;;;;;25.10;53.20;;;;;;1613597;72;1920;-65
2021/07/26 12:08:16;;;;;;;;;;;25.10;53.10;;;;;;1611785;72;728;-67
2021/07/26 12:10:18;;;;;;;;;;;25.30;53.10;;;;;;1614869;72;926;-65
2021/07/26 12:12:20;;;;;;;;;;;25.30;53.10;;;;;;1595071;73;1149;-65